Cool Spring, North Carolina
Current Conditions -  °F | °C
As of 7:35 AM on Sunday 23 Nov 2014 (Local Time) from KRUQ Reporting Station
Drizzle Drizzle  
Wind Chill: 42°   Ceiling: 2800
Heat Index: 42°   Visibility: 10mi
Dew Point: 30°   Wind: 3mph
Humidity: 62%   Direction: 110°ESE
Pressure: 30.22"   Gusts: NA
Location:  35.7427°N, 80.712°W
Report Text: KRUQ 231235Z AUTO 11003KT 10SM -DZ SCT008 BKN028 BKN120 06/M01 A3022 RMK AO2 T00551013
Loading
Personal Weather Stations






























Interactive Weather Map New forecast layout! Learn more

10-Day Weather Forecast

Advertisements
Track Severe Weather on mobile